createdAt,value
2017-06-02T00:00:12.000Z,63.80
2017-06-02T00:02:40.848Z,63.60
2017-06-02T00:05:09.712Z,63.50
2017-06-02T00:07:38.551Z,63.30
2017-06-02T00:10:06.623Z,63.30
2017-06-02T00:12:35.471Z,64.30
2017-06-02T00:15:04.308Z,64.10
2017-06-02T00:17:32.396Z,64.10
2017-06-02T00:20:01.237Z,64.20
2017-06-02T00:22:30.076Z,65.20
2017-06-02T00:24:58.923Z,65.30
2017-06-02T00:27:27.839Z,64.80
2017-06-02T00:29:56.679Z,65.50
2017-06-02T00:32:25.575Z,66.50
2017-06-02T00:34:54.439Z,67.10
2017-06-02T00:37:23.284Z,67.60
2017-06-02T00:39:52.139Z,68.40
2017-06-02T00:42:20.988Z,69.30
2017-06-02T00:44:49.835Z,69.10
2017-06-02T00:47:18.684Z,69.80
2017-06-02T00:49:47.555Z,70.80
2017-06-02T00:52:16.507Z,71.50
2017-06-02T00:54:45.690Z,71.50
2017-06-02T00:57:14.671Z,71.60
2017-06-02T00:59:43.507Z,71.20
2017-06-02T01:02:12.360Z,70.90
2017-06-02T01:04:41.212Z,71.00
2017-06-02T01:07:09.311Z,71.00
2017-06-02T01:09:38.169Z,71.20
2017-06-02T01:12:07.053Z,70.90
2017-06-02T01:14:35.912Z,70.90
2017-06-02T01:17:04.752Z,70.10
2017-06-02T01:19:33.636Z,70.70
2017-06-02T01:22:01.777Z,71.40
2017-06-02T01:24:30.622Z,70.20
2017-06-02T01:26:59.476Z,70.60
2017-06-02T01:29:28.388Z,70.70
2017-06-02T01:31:57.231Z,70.90
2017-06-02T01:34:26.071Z,71.10
2017-06-02T01:36:54.158Z,71.10
2017-06-02T01:39:23.012Z,70.60
2017-06-02T01:41:51.859Z,70.40
2017-06-02T01:44:20.705Z,71.10
2017-06-02T01:46:48.812Z,70.50
2017-06-02T01:49:17.656Z,70.10
2017-06-02T01:51:46.504Z,71.10
2017-06-02T01:54:15.384Z,71.30
2017-06-02T01:56:44.255Z,71.30
2017-06-02T01:59:13.100Z,72.10
2017-06-02T02:01:41.935Z,71.20
2017-06-02T02:04:10.780Z,71.90
2017-06-02T02:06:39.627Z,71.90
2017-06-02T02:09:08.476Z,71.90
2017-06-02T02:11:37.320Z,71.50
2017-06-02T02:14:06.184Z,71.50
2017-06-02T02:16:34.259Z,71.60
2017-06-02T02:19:03.108Z,71.80
2017-06-02T02:21:31.951Z,72.20
2017-06-02T02:24:00.787Z,71.80
2017-06-02T02:26:29.631Z,72.00
2017-06-02T02:28:57.780Z,72.00
2017-06-02T02:31:26.623Z,72.00
2017-06-02T02:33:55.471Z,72.10
2017-06-02T02:36:24.349Z,72.30
2017-06-02T02:38:53.256Z,71.80
2017-06-02T02:41:22.100Z,72.50
2017-06-02T02:43:50.972Z,72.10
2017-06-02T02:46:19.815Z,72.10
2017-06-02T02:48:48.673Z,72.50
2017-06-02T02:51:17.524Z,72.40
2017-06-02T02:53:45.605Z,72.40
2017-06-02T02:56:14.460Z,72.50
2017-06-02T02:58:43.316Z,72.60
2017-06-02T03:01:12.151Z,72.40
2017-06-02T03:03:41.024Z,71.90
2017-06-02T03:06:09.940Z,72.00
2017-06-02T03:08:38.011Z,72.00
2017-06-02T03:11:06.865Z,72.30
2017-06-02T03:13:35.711Z,73.30
2017-06-02T03:16:04.572Z,73.40
2017-06-02T03:18:32.664Z,73.40
2017-06-02T03:21:01.523Z,73.70
2017-06-02T03:23:30.365Z,73.90
2017-06-02T03:25:59.251Z,74.20
2017-06-02T03:28:27.324Z,74.10
2017-06-02T03:30:56.163Z,74.10
2017-06-02T03:33:25.016Z,73.90
2017-06-02T03:35:53.860Z,73.20
2017-06-02T03:38:21.947Z,73.20
2017-06-02T03:40:50.788Z,73.90
2017-06-02T03:43:19.636Z,74.50
2017-06-02T03:45:48.484Z,74.10
2017-06-02T03:48:17.336Z,73.80
2017-06-02T03:50:46.184Z,74.60
2017-06-02T03:53:15.033Z,74.80
2017-06-02T03:55:43.876Z,74.80
2017-06-02T03:58:12.716Z,74.30
2017-06-02T04:00:41.564Z,73.90
2017-06-02T04:03:10.412Z,73.90
2017-06-02T04:05:39.252Z,74.60
2017-06-02T04:08:08.099Z,75.00
2017-06-02T04:10:36.990Z,75.10
2017-06-02T04:13:05.835Z,75.20
2017-06-02T04:15:34.691Z,75.40
2017-06-02T04:18:03.545Z,75.80
2017-06-02T04:20:32.383Z,74.90
2017-06-02T04:23:00.475Z,74.90
2017-06-02T04:25:29.335Z,75.20
2017-06-02T04:27:58.184Z,75.40
2017-06-02T04:30:27.027Z,75.60
2017-06-02T04:32:55.930Z,75.70
2017-06-02T04:35:24.753Z,75.10
2017-06-02T04:37:53.601Z,75.40
2017-06-02T04:40:22.466Z,75.20
2017-06-02T04:42:51.313Z,75.80
2017-06-02T04:45:20.424Z,75.40
2017-06-02T04:47:49.268Z,75.00
2017-06-02T04:50:17.355Z,75.00
2017-06-02T04:52:46.209Z,75.70
2017-06-02T04:55:15.077Z,75.20
2017-06-02T04:57:43.936Z,76.00
2017-06-02T05:00:12.028Z,76.00
2017-06-02T05:02:40.876Z,74.20
2017-06-02T05:05:09.715Z,73.40
2017-06-02T05:07:38.567Z,72.40
2017-06-02T05:10:07.438Z,71.00
2017-06-02T05:12:36.340Z,70.70
2017-06-02T05:15:05.175Z,70.10
2017-06-02T05:17:34.015Z,69.60
2017-06-02T05:20:02.873Z,69.20
2017-06-02T05:22:31.840Z,68.20
2017-06-02T05:25:00.696Z,68.00
2017-06-02T05:27:29.547Z,67.70
2017-06-02T05:29:58.395Z,67.60
2017-06-02T05:32:27.243Z,66.90
2017-06-02T05:34:56.127Z,66.80
2017-06-02T05:37:24.977Z,66.10
2017-06-02T05:39:53.831Z,65.80
2017-06-02T05:42:22.684Z,64.50
2017-06-02T05:44:51.559Z,64.80
2017-06-02T05:47:20.416Z,64.70
2017-06-02T05:49:49.260Z,64.30
2017-06-02T05:52:18.159Z,63.60
2017-06-02T05:54:47.004Z,63.00
2017-06-02T05:57:15.851Z,62.60
2017-06-02T05:59:44.703Z,63.10
2017-06-02T06:02:13.576Z,62.20
2017-06-02T06:04:52.475Z,61.90
2017-06-02T06:09:56.515Z,60.80
2017-06-02T06:12:25.356Z,60.00
2017-06-02T06:14:54.352Z,60.20
2017-06-02T06:17:23.191Z,59.40
2017-06-02T06:19:51.279Z,59.40
2017-06-02T06:22:20.123Z,58.90
2017-06-02T06:24:48.968Z,58.80
2017-06-02T06:27:17.840Z,58.30
2017-06-02T06:29:46.687Z,57.60
2017-06-02T06:32:15.544Z,57.40
2017-06-02T06:34:44.389Z,56.80
2017-06-02T06:37:13.337Z,56.60
2017-06-02T06:39:42.131Z,56.30
2017-06-02T06:42:10.988Z,56.00
2017-06-02T06:44:39.843Z,55.50
2017-06-02T06:47:08.687Z,55.10
2017-06-02T06:49:37.544Z,55.20
2017-06-02T06:52:05.628Z,55.20
2017-06-02T06:54:34.473Z,54.40
2017-06-02T06:57:03.323Z,53.80
2017-06-02T06:59:32.203Z,53.20
2017-06-02T07:02:01.052Z,53.00
2017-06-02T07:04:30.749Z,53.20
2017-06-02T07:06:59.902Z,52.90
2017-06-02T07:09:28.002Z,52.90
2017-06-02T07:11:56.930Z,52.90
2017-06-02T07:14:25.770Z,52.50
2017-06-02T07:16:54.615Z,51.80
2017-06-02T07:19:23.459Z,49.80
2017-06-02T07:21:52.345Z,50.80
2017-06-02T07:24:21.185Z,51.70
2017-06-02T07:26:50.024Z,51.10
2017-06-02T07:29:18.888Z,50.20
2017-06-02T07:31:46.958Z,50.10
2017-06-02T07:34:15.812Z,50.20
2017-06-02T07:36:44.656Z,49.50
2017-06-02T07:39:13.504Z,50.00
2017-06-02T07:41:42.347Z,49.70
2017-06-02T07:44:11.212Z,49.00
2017-06-02T07:46:39.284Z,49.00
2017-06-02T07:49:08.119Z,50.20
2017-06-02T07:51:36.964Z,49.80
2017-06-02T07:54:05.798Z,50.00
2017-06-02T07:56:34.645Z,49.60
2017-06-02T07:59:02.715Z,49.60
2017-06-02T08:01:31.563Z,49.30
2017-06-02T08:04:00.405Z,49.20
2017-06-02T08:06:29.247Z,50.30
2017-06-02T08:08:58.129Z,50.30
2017-06-02T08:11:26.984Z,49.50
2017-06-02T08:13:55.070Z,49.50
2017-06-02T08:16:23.967Z,50.10
2017-06-02T08:18:52.859Z,50.40
2017-06-02T08:21:21.756Z,50.30
2017-06-02T08:23:50.612Z,50.00
2017-06-02T08:26:19.456Z,50.70
2017-06-02T08:28:48.316Z,50.50
2017-06-02T08:31:16.392Z,50.50
2017-06-02T08:33:45.244Z,50.70
2017-06-02T08:36:14.092Z,50.20
2017-06-02T08:38:42.932Z,49.90
2017-06-02T08:41:11.784Z,48.90
2017-06-02T08:43:40.631Z,49.30
2017-06-02T08:46:09.488Z,48.30
2017-06-02T08:48:38.332Z,45.70
2017-06-02T08:51:07.219Z,46.30
2017-06-02T08:53:36.068Z,45.00
2017-06-02T08:56:04.908Z,43.40
2017-06-02T08:58:34.825Z,45.40
2017-06-02T09:01:03.696Z,45.70
2017-06-02T09:03:32.542Z,43.80
2017-06-02T09:06:01.379Z,41.70
2017-06-02T09:08:30.224Z,42.00
2017-06-02T09:10:59.067Z,39.40
2017-06-02T09:13:27.912Z,38.90
2017-06-02T09:15:56.768Z,38.10
2017-06-02T09:18:25.609Z,36.40
2017-06-02T09:20:53.695Z,36.40
2017-06-02T09:23:22.542Z,36.90
2017-06-02T09:25:51.376Z,38.60
2017-06-02T09:28:20.225Z,38.00
2017-06-02T09:30:49.067Z,37.40
2017-06-02T09:33:17.916Z,37.80
2017-06-02T09:35:46.769Z,39.10
2017-06-02T09:38:15.612Z,40.10
2017-06-02T09:40:44.532Z,38.60
2017-06-02T09:43:13.403Z,39.50
2017-06-02T09:45:42.238Z,39.90
2017-06-02T09:48:11.091Z,39.40
2017-06-02T09:50:39.940Z,39.60
2017-06-02T09:53:08.783Z,38.50
2017-06-02T09:55:37.624Z,39.10
2017-06-02T09:58:06.500Z,38.90
2017-06-02T10:00:35.332Z,38.70
2017-06-02T10:03:04.217Z,38.20
2017-06-02T10:05:33.151Z,37.90
2017-06-02T10:08:01.993Z,37.60
2017-06-02T10:10:30.835Z,38.10
2017-06-02T10:12:59.676Z,37.40
2017-06-02T10:15:28.556Z,37.70
2017-06-02T10:17:57.396Z,38.10
2017-06-02T10:20:26.272Z,38.80
2017-06-02T10:22:54.347Z,38.80
2017-06-02T10:25:23.191Z,37.90
2017-06-02T10:27:52.035Z,38.20
2017-06-02T10:30:20.875Z,37.70
2017-06-02T10:32:49.725Z,38.60
2017-06-02T10:35:18.556Z,37.40
2017-06-02T10:37:47.404Z,37.20
2017-06-02T10:40:16.245Z,37.00
2017-06-02T10:42:45.103Z,36.90
2017-06-02T10:45:13.953Z,36.60
2017-06-02T10:47:42.822Z,36.70
2017-06-02T10:50:11.700Z,37.50
2017-06-02T10:52:40.540Z,36.40
2017-06-02T10:55:09.403Z,36.60
2017-06-02T10:57:38.244Z,36.90
2017-06-02T11:00:07.092Z,36.50
2017-06-02T11:02:35.187Z,36.50
2017-06-02T11:05:04.064Z,36.60
2017-06-02T11:07:32.148Z,36.60
2017-06-02T11:10:00.995Z,36.80
2017-06-02T11:12:29.855Z,37.70
2017-06-02T11:14:58.700Z,37.80
2017-06-02T11:17:26.815Z,37.80
2017-06-02T11:19:55.651Z,37.20
2017-06-02T11:22:23.751Z,37.20
2017-06-02T11:24:52.603Z,37.10
2017-06-02T11:27:21.439Z,37.10
2017-06-02T11:29:50.292Z,37.00
2017-06-02T11:32:19.124Z,37.80
2017-06-02T11:34:47.976Z,37.40
2017-06-02T11:37:16.055Z,37.40
2017-06-02T11:39:44.905Z,38.00
2017-06-02T11:42:13.751Z,38.20
2017-06-02T11:44:42.619Z,37.20
2017-06-02T11:47:11.455Z,38.20
2017-06-02T11:49:40.309Z,36.90
2017-06-02T11:52:08.395Z,36.90
2017-06-02T11:54:37.238Z,37.40
2017-06-02T11:57:06.083Z,37.50
2017-06-02T11:59:34.928Z,37.80
2017-06-02T12:02:03.780Z,37.90
2017-06-02T12:04:32.730Z,38.60
2017-06-02T12:07:01.580Z,37.90
2017-06-02T12:09:30.444Z,37.10
2017-06-02T12:11:59.292Z,38.20
2017-06-02T12:14:28.140Z,38.00
2017-06-02T12:16:56.987Z,37.50
2017-06-02T12:19:25.080Z,37.50
2017-06-02T12:21:53.930Z,38.10
2017-06-02T12:24:22.775Z,38.00
2017-06-02T12:26:51.615Z,38.00
2017-06-02T12:29:20.483Z,38.30
2017-06-02T12:31:49.327Z,37.80
2017-06-02T12:34:18.195Z,37.70
2017-06-02T12:36:46.278Z,37.80
2017-06-02T12:39:15.144Z,38.40
2017-06-02T12:41:43.988Z,38.20
2017-06-02T12:44:12.823Z,38.30
2017-06-02T12:46:41.670Z,37.70
2017-06-02T12:49:10.515Z,38.90
2017-06-02T12:51:39.380Z,38.80
2017-06-02T12:54:08.215Z,38.50
2017-06-02T12:56:37.051Z,38.10
2017-06-02T12:59:05.915Z,38.00
2017-06-02T13:01:34.762Z,38.20
2017-06-02T13:04:03.613Z,38.00
2017-06-02T13:06:32.541Z,37.90
2017-06-02T13:09:01.383Z,38.00
2017-06-02T13:11:30.222Z,37.00
2017-06-02T13:13:59.091Z,37.20
2017-06-02T13:16:28.035Z,36.80
2017-06-02T13:18:56.871Z,36.80
2017-06-02T13:21:25.763Z,37.00
2017-06-02T13:23:54.600Z,37.80
2017-06-02T13:26:23.459Z,37.60
2017-06-02T13:28:52.299Z,36.90
2017-06-02T13:31:21.158Z,37.10
2017-06-02T13:33:50.003Z,37.40
2017-06-02T13:36:18.888Z,37.30
2017-06-02T13:38:47.776Z,36.90
2017-06-02T13:41:16.611Z,36.10
2017-06-02T13:43:45.485Z,36.10
2017-06-02T13:46:14.319Z,36.60
2017-06-02T13:48:43.167Z,36.70
2017-06-02T13:51:12.995Z,36.70
2017-06-02T13:53:41.872Z,35.60
2017-06-02T13:56:10.728Z,36.80
2017-06-02T13:58:39.571Z,36.70
2017-06-02T14:01:08.423Z,35.90
2017-06-02T14:03:37.269Z,35.70
2017-06-02T14:06:06.124Z,35.80
2017-06-02T14:08:34.981Z,37.10
2017-06-02T14:11:03.820Z,36.00
2017-06-02T14:13:32.659Z,36.10
2017-06-02T14:16:01.515Z,36.60
2017-06-02T14:18:30.372Z,36.30
2017-06-02T14:20:59.211Z,35.90
2017-06-02T14:23:28.081Z,37.10
2017-06-02T14:25:56.915Z,36.20
2017-06-02T14:28:25.763Z,36.20
2017-06-02T14:30:54.860Z,36.40
2017-06-02T14:33:23.708Z,36.20
2017-06-02T14:35:52.558Z,36.00
2017-06-02T14:38:20.644Z,36.00
2017-06-02T14:40:49.479Z,35.80
2017-06-02T14:43:18.363Z,36.60
2017-06-02T14:45:47.203Z,36.30
2017-06-02T14:48:16.035Z,36.00
2017-06-02T14:50:44.883Z,36.50
2017-06-02T14:53:13.072Z,36.40
2017-06-02T14:55:41.923Z,36.50
2017-06-02T14:58:10.786Z,35.70
2017-06-02T15:00:39.632Z,36.00
2017-06-02T15:03:08.468Z,36.00
2017-06-02T15:05:38.099Z,36.50
2017-06-02T15:08:06.939Z,36.10
2017-06-02T15:10:35.785Z,36.50
2017-06-02T15:13:04.639Z,36.10
2017-06-02T15:15:33.492Z,35.60
2017-06-02T15:18:02.352Z,35.40
2017-06-02T15:20:31.192Z,36.20
2017-06-02T15:23:00.099Z,35.70
2017-06-02T15:25:29.096Z,36.40
2017-06-02T15:27:57.994Z,36.60
2017-06-02T15:30:26.912Z,35.80
2017-06-02T15:32:55.748Z,37.00
2017-06-02T15:35:24.612Z,36.70
2017-06-02T15:37:52.692Z,36.70
2017-06-02T15:40:21.544Z,36.70
2017-06-02T15:42:50.379Z,36.80
2017-06-02T15:45:19.222Z,36.20
2017-06-02T15:47:48.067Z,36.20
2017-06-02T15:50:16.951Z,35.90
2017-06-02T15:52:45.793Z,36.50
2017-06-02T15:55:14.632Z,36.50
2017-06-02T15:57:42.717Z,36.50
2017-06-02T16:00:11.623Z,36.70
2017-06-02T16:02:40.479Z,36.40
2017-06-02T16:05:09.318Z,36.20
2017-06-02T16:07:38.184Z,36.70
2017-06-02T16:10:35.691Z,36.20
2017-06-02T16:13:04.594Z,36.20
2017-06-02T16:15:33.436Z,36.40
2017-06-02T16:18:02.279Z,36.00
2017-06-02T16:20:31.119Z,36.00
2017-06-02T16:22:59.973Z,36.30
2017-06-02T16:25:28.810Z,36.50
2017-06-02T16:27:57.661Z,36.40
2017-06-02T16:30:26.495Z,36.20
2017-06-02T16:32:55.367Z,35.20
2017-06-02T16:35:24.211Z,35.60
2017-06-02T16:37:53.052Z,35.60
2017-06-02T16:40:21.939Z,36.40
2017-06-02T16:42:50.805Z,35.90
2017-06-02T16:45:19.651Z,36.60
2017-06-02T16:47:48.559Z,36.70
2017-06-02T16:50:17.402Z,36.60
2017-06-02T16:52:46.248Z,37.20
2017-06-02T16:55:15.088Z,37.30
2017-06-02T16:57:43.171Z,37.30
2017-06-02T17:00:11.247Z,37.50
2017-06-02T17:02:39.610Z,37.70
2017-06-02T17:05:08.460Z,36.60
2017-06-02T17:07:37.303Z,37.20
2017-06-02T17:10:06.152Z,37.30
2017-06-02T17:13:11.392Z,37.30
2017-06-02T17:15:39.459Z,36.80
2017-06-02T17:18:07.530Z,37.30
2017-06-02T17:20:35.608Z,36.80
2017-06-02T17:23:03.695Z,37.40
2017-06-02T17:25:31.784Z,37.80
2017-06-02T17:27:59.851Z,36.80
2017-06-02T17:30:27.926Z,36.30
2017-06-02T17:32:56.763Z,36.70
2017-06-02T17:35:24.835Z,36.60
2017-06-02T17:37:52.907Z,36.90
2017-06-02T17:40:20.988Z,37.50
2017-06-02T17:42:49.058Z,37.10
2017-06-02T17:45:17.124Z,37.90
2017-06-02T17:47:45.211Z,37.60
2017-06-02T17:50:13.295Z,37.40
2017-06-02T17:52:41.369Z,37.20
2017-06-02T17:55:09.430Z,37.50
2017-06-02T17:57:37.527Z,37.80
2017-06-02T18:00:05.602Z,37.80
2017-06-02T18:02:33.719Z,37.90
2017-06-02T18:05:01.862Z,38.40
2017-06-02T18:07:30.730Z,39.20
2017-06-02T18:09:58.844Z,38.80
2017-06-02T18:12:26.907Z,38.80
2017-06-02T18:14:55.004Z,39.10
2017-06-02T18:17:23.067Z,39.30
2017-06-02T18:19:51.215Z,39.30
2017-06-02T18:22:19.287Z,39.80
2017-06-02T18:24:47.358Z,39.50
2017-06-02T18:27:15.432Z,39.40
2017-06-02T18:29:43.496Z,39.40
2017-06-02T18:32:11.576Z,39.80
2017-06-02T18:34:40.420Z,40.40
2017-06-02T18:37:08.850Z,40.30
2017-06-02T18:39:36.919Z,40.50
2017-06-02T18:42:05.012Z,40.80
2017-06-02T18:44:33.080Z,40.60
2017-06-02T18:47:01.147Z,40.60
2017-06-02T18:49:29.279Z,41.00
2017-06-02T18:51:57.379Z,40.80
2017-06-02T18:54:25.451Z,40.80
2017-06-02T18:56:53.520Z,41.00
2017-06-02T18:59:21.591Z,41.30
2017-06-02T19:01:49.663Z,41.40
2017-06-02T19:04:17.773Z,41.40
2017-06-02T19:06:45.888Z,42.20
2017-06-02T19:09:13.972Z,42.50
2017-06-02T19:11:42.059Z,42.30
2017-06-02T19:14:10.126Z,43.20
2017-06-02T19:16:38.207Z,42.50
2017-06-02T19:19:07.051Z,43.30
2017-06-02T19:21:35.131Z,43.20
2017-06-02T19:24:03.446Z,43.30
2017-06-02T19:26:31.553Z,43.90
2017-06-02T19:28:59.627Z,44.00
2017-06-02T19:31:27.719Z,45.80
2017-06-02T19:33:55.820Z,46.00
2017-06-02T19:36:23.899Z,46.20
2017-06-02T19:38:51.976Z,44.70
2017-06-02T19:41:20.049Z,45.00
2017-06-02T19:43:48.128Z,45.00
2017-06-02T19:46:16.201Z,45.10
2017-06-02T19:48:44.281Z,45.40
2017-06-02T19:51:13.136Z,46.00
2017-06-02T19:53:41.215Z,46.00
2017-06-02T19:56:09.304Z,46.20
2017-06-02T19:58:37.367Z,46.40
2017-06-02T20:01:06.257Z,46.80
2017-06-02T20:03:34.326Z,46.80
2017-06-02T20:06:02.408Z,47.00
2017-06-02T20:08:30.487Z,47.80
2017-06-02T20:10:58.556Z,47.50
2017-06-02T20:13:26.651Z,47.90
2017-06-02T20:15:55.488Z,48.00
2017-06-02T20:18:23.569Z,48.00
2017-06-02T20:23:26.032Z,48.40
2017-06-02T20:25:54.117Z,48.80
2017-06-02T20:28:22.200Z,49.00
2017-06-02T20:30:50.288Z,49.20
2017-06-02T20:33:18.371Z,49.60
2017-06-02T20:35:46.470Z,49.60
2017-06-02T20:38:14.546Z,49.80
2017-06-02T20:40:42.624Z,50.10
2017-06-02T20:43:10.708Z,50.10
2017-06-02T20:45:38.776Z,50.20
2017-06-02T20:48:06.852Z,50.50
2017-06-02T20:50:34.936Z,50.70
2017-06-02T20:53:03.019Z,50.60
2017-06-02T20:55:31.084Z,51.00
2017-06-02T20:57:59.183Z,50.90
2017-06-02T21:00:27.252Z,51.10
2017-06-02T21:02:55.319Z,51.30
2017-06-02T21:05:23.397Z,51.50
2017-06-02T21:07:51.471Z,52.10
2017-06-02T21:10:19.543Z,52.90
2017-06-02T21:12:47.614Z,53.00
2017-06-02T21:15:15.688Z,53.00
2017-06-02T21:17:43.755Z,52.80
2017-06-02T21:20:11.847Z,52.90
2017-06-02T21:22:41.158Z,52.80
2017-06-02T21:25:19.318Z,53.00
2017-06-02T21:27:47.392Z,53.20
2017-06-02T21:30:15.459Z,53.30
2017-06-02T21:32:43.535Z,53.70
2017-06-02T21:35:11.644Z,53.80
2017-06-02T21:37:39.720Z,53.80
2017-06-02T21:40:07.819Z,53.70
2017-06-02T21:42:35.925Z,53.60
2017-06-02T21:45:04.000Z,54.00
2017-06-02T21:47:32.077Z,54.50
2017-06-02T21:50:00.164Z,54.70
2017-06-02T21:52:28.241Z,54.70
2017-06-02T21:54:56.330Z,54.60
2017-06-02T21:57:24.399Z,55.00
2017-06-02T21:59:52.472Z,54.80
2017-06-02T22:02:20.546Z,54.80
2017-06-02T22:04:48.637Z,54.80
2017-06-02T22:07:17.472Z,54.70
2017-06-02T22:09:45.535Z,54.70
2017-06-02T22:12:13.616Z,54.80
2017-06-02T22:14:41.684Z,54.90
2017-06-02T22:17:09.759Z,55.30
2017-06-02T22:19:37.830Z,55.20
2017-06-02T22:22:05.919Z,55.60
2017-06-02T22:24:34.102Z,55.70
2017-06-02T22:27:02.168Z,55.80
2017-06-02T22:29:30.240Z,55.70
2017-06-02T22:31:58.330Z,55.80
2017-06-02T22:34:26.403Z,55.60
2017-06-02T22:36:54.476Z,55.60
2017-06-02T22:39:22.584Z,55.60
2017-06-02T22:41:50.656Z,55.70
2017-06-02T22:44:18.724Z,55.60
2017-06-02T22:46:46.796Z,55.20
2017-06-02T22:49:15.784Z,55.20
2017-06-02T22:51:44.635Z,55.40
2017-06-02T22:54:12.707Z,55.30
2017-06-02T22:56:40.780Z,55.60
2017-06-02T22:59:08.876Z,56.20
2017-06-02T23:01:36.964Z,57.00
2017-06-02T23:04:05.803Z,57.50
2017-06-02T23:06:33.875Z,57.50
2017-06-02T23:09:01.960Z,57.80
2017-06-02T23:11:30.032Z,58.10
2017-06-02T23:13:58.113Z,58.60
2017-06-02T23:16:26.199Z,58.60
2017-06-02T23:18:54.388Z,59.00
2017-06-02T23:21:22.443Z,59.30
2017-06-02T23:23:50.547Z,60.30
2017-06-02T23:26:18.623Z,60.10
2017-06-02T23:28:46.696Z,60.90
2017-06-02T23:31:14.784Z,60.90
2017-06-02T23:33:42.862Z,61.30
2017-06-02T23:36:10.942Z,61.00
2017-06-02T23:38:39.125Z,61.00
2017-06-02T23:41:07.195Z,61.70
2017-06-02T23:43:35.272Z,62.30
2017-06-02T23:46:03.379Z,62.20
2017-06-02T23:48:31.456Z,62.80
2017-06-02T23:50:59.523Z,63.00
2017-06-02T23:53:27.607Z,63.20
2017-06-02T23:55:55.687Z,63.10
2017-06-02T23:58:24.531Z,64.90
